createdAt,value
2023-02-12T00:00:52.687Z,102619.72
2023-02-12T00:03:19.118Z,102619.81
2023-02-12T00:05:45.739Z,102606.66
2023-02-12T00:08:16.166Z,102606.66
2023-02-12T00:10:46.449Z,102608.28
2023-02-12T00:13:13.137Z,102613.69
2023-02-12T00:15:40.670Z,102603.06
2023-02-12T00:18:07.544Z,102601.91
2023-02-12T00:20:34.346Z,102604.59
2023-02-12T00:23:03.241Z,102603.75
2023-02-12T00:25:29.871Z,102603.94
2023-02-12T00:27:56.238Z,102603.44
2023-02-12T00:30:22.704Z,102609.06
2023-02-12T00:32:49.239Z,102611.84
2023-02-12T00:35:16.153Z,102611.75
2023-02-12T00:37:42.764Z,102610.97
2023-02-12T00:40:09.708Z,102602.88
2023-02-12T00:42:36.056Z,102606.53
2023-02-12T00:45:04.747Z,102609.44
2023-02-12T00:47:31.178Z,102611.19
2023-02-12T00:49:57.550Z,102612.34
2023-02-12T00:52:23.883Z,102625.97
2023-02-12T00:54:50.290Z,102619.50
2023-02-12T00:57:16.652Z,102621.34
2023-02-12T00:59:43.096Z,102630.72
2023-02-12T01:02:09.615Z,102631.09
2023-02-12T01:04:36.093Z,102630.22
2023-02-12T01:07:02.595Z,102632.84
2023-02-12T01:09:29.154Z,102639.22
2023-02-12T01:11:55.561Z,102628.50
2023-02-12T01:14:22.028Z,102629.38
2023-02-12T01:16:48.529Z,102626.97
2023-02-12T01:19:15.319Z,102623.38
2023-02-12T01:21:44.128Z,102623.47
2023-02-12T01:24:15.573Z,102618.19
2023-02-12T01:26:42.071Z,102630.94
2023-02-12T01:29:11.688Z,102622.59
2023-02-12T01:31:39.847Z,102627.34
2023-02-12T01:34:07.817Z,102628.44
2023-02-12T01:36:37.415Z,102631.13
2023-02-12T01:39:05.481Z,102621.19
2023-02-12T01:41:40.455Z,102617.59
2023-02-12T01:44:13.006Z,102621.47
2023-02-12T01:46:39.975Z,102624.28
2023-02-12T01:49:12.528Z,102618.00
2023-02-12T01:51:40.629Z,102618.88
2023-02-12T01:54:09.900Z,102625.34
2023-02-12T01:56:36.524Z,102611.94
2023-02-12T01:59:03.392Z,102608.91
2023-02-12T02:01:32.466Z,102602.25
2023-02-12T02:04:05.350Z,102608.53
2023-02-12T02:06:39.660Z,102611.53
2023-02-12T02:09:06.232Z,102611.63
2023-02-12T02:11:50.965Z,102608.91
2023-02-12T02:14:32.844Z,102612.78
2023-02-12T02:17:20.665Z,102609.31
2023-02-12T02:20:24.273Z,102610.19
2023-02-12T02:23:12.880Z,102612.03
2023-02-12T02:26:04.174Z,102611.34
2023-02-12T02:28:42.958Z,102613.19
2023-02-12T02:31:41.035Z,102619.56
2023-02-12T02:34:19.320Z,102610.00
2023-02-12T02:37:00.569Z,102614.72
2023-02-12T02:39:59.856Z,102617.44
2023-02-12T02:42:37.586Z,102613.97
2023-02-12T02:45:18.822Z,102612.44
2023-02-12T02:47:55.957Z,102603.66
2023-02-12T02:50:25.936Z,102607.41
2023-02-12T02:52:57.225Z,102612.72
2023-02-12T02:55:26.931Z,102608.28
2023-02-12T02:58:05.988Z,102604.69
2023-02-12T03:00:38.809Z,102611.19
2023-02-12T03:03:17.016Z,102605.69
2023-02-12T03:05:49.629Z,102602.78
2023-02-12T03:08:25.130Z,102595.53
2023-02-12T03:10:57.464Z,102597.38
2023-02-12T03:13:34.088Z,102600.16
2023-02-12T03:16:06.863Z,102607.53
2023-02-12T03:18:42.801Z,102601.25
2023-02-12T03:21:13.981Z,102604.69
2023-02-12T03:23:52.872Z,102604.59
2023-02-12T03:26:31.015Z,102605.69
2023-02-12T03:28:57.456Z,102604.91
2023-02-12T03:31:45.523Z,102603.81
2023-02-12T03:34:35.063Z,102606.16
2023-02-12T03:37:18.004Z,102608.75
2023-02-12T03:40:00.919Z,102614.34
2023-02-12T03:42:33.769Z,102610.97
2023-02-12T03:45:33.824Z,102606.44
2023-02-12T03:48:28.781Z,102614.47
2023-02-12T03:51:13.214Z,102609.91
2023-02-12T03:53:39.685Z,102609.53
2023-02-12T03:56:14.075Z,102609.91
2023-02-12T03:58:42.943Z,102613.19
2023-02-12T04:01:09.979Z,102620.13
2023-02-12T04:03:36.625Z,102615.19
2023-02-12T04:06:03.458Z,102618.38
2023-02-12T04:08:32.384Z,102617.34
2023-02-12T04:11:13.571Z,102619.38
2023-02-12T04:13:54.755Z,102620.22
2023-02-12T04:16:37.853Z,102617.34
2023-02-12T04:19:04.899Z,102616.66
2023-02-12T04:21:55.840Z,102623.00
2023-02-12T04:24:40.361Z,102629.72
2023-02-12T04:27:24.275Z,102625.34
2023-02-12T04:30:05.680Z,102627.28
2023-02-12T04:32:52.827Z,102624.69
2023-02-12T04:35:22.447Z,102632.03
2023-02-12T04:37:55.305Z,102633.28
2023-02-12T04:40:23.056Z,102632.91
2023-02-12T04:42:52.270Z,102630.69
2023-02-12T04:45:31.276Z,102631.94
2023-02-12T04:47:57.949Z,102628.56
2023-02-12T04:50:24.772Z,102634.16
2023-02-12T04:52:52.862Z,102637.84
2023-02-12T04:55:19.534Z,102634.25
2023-02-12T04:57:46.012Z,102636.97
2023-02-12T05:00:17.399Z,102628.66
2023-02-12T05:02:44.021Z,102627.81
2023-02-12T05:05:10.658Z,102626.94
2023-02-12T05:07:37.345Z,102624.53
2023-02-12T05:10:04.192Z,102618.03
2023-02-12T05:12:30.768Z,102628.84
2023-02-12T05:14:57.999Z,102620.19
2023-02-12T05:17:24.968Z,102615.81
2023-02-12T05:19:51.766Z,102618.72
2023-02-12T05:22:18.380Z,102617.56
2023-02-12T05:24:45.395Z,102622.38
2023-02-12T05:27:11.939Z,102626.06
2023-02-12T05:29:38.840Z,102621.72
2023-02-12T05:32:07.309Z,102620.84
2023-02-12T05:34:36.720Z,102617.66
2023-02-12T05:37:03.511Z,102619.50
2023-02-12T05:39:39.273Z,102620.56
2023-02-12T05:42:05.939Z,102618.63
2023-02-12T05:44:32.464Z,102626.75
2023-02-12T05:47:06.755Z,102623.16
2023-02-12T05:49:36.439Z,102624.22
2023-02-12T05:52:03.224Z,102629.63
2023-02-12T05:54:29.643Z,102623.44
2023-02-12T05:56:56.386Z,102630.81
2023-02-12T05:59:23.823Z,102631.56
2023-02-12T06:01:52.288Z,102631.56
2023-02-12T06:04:29.328Z,102643.25
2023-02-12T06:06:56.663Z,102635.13
2023-02-12T06:09:23.866Z,102643.91
2023-02-12T06:11:50.541Z,102642.09
2023-02-12T06:14:21.505Z,102639.38
2023-02-12T06:16:50.260Z,102643.84
2023-02-12T06:22:03.582Z,102656.84
2023-02-12T06:24:30.215Z,102642.66
2023-02-12T06:26:58.774Z,102647.09
2023-02-12T06:29:27.361Z,102647.97
2023-02-12T06:31:57.757Z,102654.34
2023-02-12T06:34:24.236Z,102651.75
2023-02-12T06:36:53.454Z,102656.16
2023-02-12T06:39:19.879Z,102659.53
2023-02-12T06:41:46.636Z,102649.03
2023-02-12T06:44:13.431Z,102650.28
2023-02-12T06:46:42.133Z,102658.03
2023-02-12T06:49:08.579Z,102663.63
2023-02-12T06:51:40.336Z,102655.31
2023-02-12T06:54:16.829Z,102664.59
2023-02-12T06:56:46.645Z,102660.94
2023-02-12T06:59:15.554Z,102667.97
2023-02-12T07:01:42.438Z,102667.69
2023-02-12T07:04:21.015Z,102670.25
2023-02-12T07:06:47.857Z,102670.09
2023-02-12T07:09:15.451Z,102667.47
2023-02-12T07:11:41.851Z,102671.81
2023-02-12T07:14:13.929Z,102665.34
2023-02-12T07:16:40.645Z,102669.91
2023-02-12T07:19:07.230Z,102674.22
2023-02-12T07:21:42.783Z,102675.78
2023-02-12T07:24:18.101Z,102674.69
2023-02-12T07:26:44.670Z,102675.19
2023-02-12T07:29:13.527Z,102679.41
2023-02-12T07:31:41.749Z,102673.84
2023-02-12T07:34:10.105Z,102669.09
2023-02-12T07:36:37.530Z,102675.06
2023-02-12T07:39:04.673Z,102678.25
2023-02-12T07:41:34.009Z,102680.63
2023-02-12T07:44:07.628Z,102670.19
2023-02-12T07:46:39.576Z,102676.38
2023-02-12T07:49:07.940Z,102685.91
2023-02-12T07:51:35.667Z,102686.69
2023-02-12T07:54:09.985Z,102687.25
2023-02-12T07:56:40.842Z,102684.34
2023-02-12T07:59:11.241Z,102689.78
2023-02-12T08:01:46.208Z,102693.25
2023-02-12T08:04:15.419Z,102693.06
2023-02-12T08:06:45.044Z,102684.84
2023-02-12T08:09:15.811Z,102693.84
2023-02-12T08:11:42.895Z,102688.75
2023-02-12T08:14:12.628Z,102689.31
2023-02-12T08:16:40.943Z,102692.59
2023-02-12T08:19:19.418Z,102699.66
2023-02-12T08:21:57.314Z,102696.06
2023-02-12T08:24:28.629Z,102703.78
2023-02-12T08:26:55.958Z,102689.91
2023-02-12T08:29:31.422Z,102704.03
2023-02-12T08:32:03.216Z,102701.97
2023-02-12T08:34:45.169Z,102704.25
2023-02-12T08:37:14.805Z,102702.97
2023-02-12T08:39:43.617Z,102706.13
2023-02-12T08:42:14.799Z,102702.38
2023-02-12T08:44:42.565Z,102707.03
2023-02-12T08:47:10.047Z,102700.53
2023-02-12T08:49:36.590Z,102700.88
2023-02-12T08:52:05.236Z,102700.34
2023-02-12T08:54:34.129Z,102696.31
2023-02-12T08:57:02.422Z,102711.38
2023-02-12T08:59:29.843Z,102701.53
2023-02-12T09:01:56.849Z,102711.84
2023-02-12T09:04:30.279Z,102707.16
2023-02-12T09:06:59.414Z,102709.78
2023-02-12T09:09:26.002Z,102719.53
2023-02-12T09:11:56.478Z,102709.22
2023-02-12T09:14:31.335Z,102714.84
2023-02-12T09:17:03.253Z,102715.72
2023-02-12T09:19:29.801Z,102719.66
2023-02-12T09:21:58.982Z,102725.50
2023-02-12T09:24:30.452Z,102723.09
2023-02-12T09:26:57.023Z,102725.63
2023-02-12T09:29:23.417Z,102727.66
2023-02-12T09:31:52.284Z,102728.22
2023-02-12T09:34:18.932Z,102734.28
2023-02-12T09:36:47.815Z,102727.97
2023-02-12T09:39:19.972Z,102723.97
2023-02-12T09:42:08.430Z,102728.53
2023-02-12T09:44:42.704Z,102726.69
2023-02-12T09:47:30.283Z,102726.47
2023-02-12T09:50:11.000Z,102732.75
2023-02-12T09:52:37.860Z,102732.75
2023-02-12T09:55:05.092Z,102739.16
2023-02-12T09:57:37.822Z,102735.56
2023-02-12T10:00:16.156Z,102732.06
2023-02-12T10:02:42.821Z,102735.09
2023-02-12T10:05:35.096Z,102731.41
2023-02-12T10:08:26.071Z,102731.72
2023-02-12T10:11:22.851Z,102733.69
2023-02-12T10:14:08.313Z,102730.72
2023-02-12T10:17:03.447Z,102727.56
2023-02-12T10:19:51.229Z,102727.44
2023-02-12T10:22:23.719Z,102727.88
2023-02-12T10:24:59.258Z,102724.69
2023-02-12T10:27:46.772Z,102724.81
2023-02-12T10:30:23.774Z,102725.44
2023-02-12T10:32:54.877Z,102723.34
2023-02-12T10:35:25.035Z,102713.94
2023-02-12T10:38:04.418Z,102709.28
2023-02-12T10:40:37.720Z,102715.47
2023-02-12T10:43:04.249Z,102711.03
2023-02-12T10:45:33.969Z,102712.34
2023-02-12T10:48:16.814Z,102704.84
2023-02-12T10:51:05.360Z,102702.94
2023-02-12T10:53:43.420Z,102708.72
2023-02-12T10:56:13.059Z,102708.31
2023-02-12T10:58:42.611Z,102700.75
2023-02-12T11:01:19.871Z,102700.25
2023-02-12T11:03:46.863Z,102697.28
2023-02-12T11:06:22.753Z,102695.81
2023-02-12T11:08:51.856Z,102698.06
2023-02-12T11:11:23.023Z,102705.00
2023-02-12T11:14:04.044Z,102694.22
2023-02-12T11:16:32.284Z,102694.38
2023-02-12T11:19:01.429Z,102685.59
2023-02-12T11:21:28.133Z,102683.00
2023-02-12T11:23:56.934Z,102678.53
2023-02-12T11:26:30.666Z,102680.16
2023-02-12T11:29:04.067Z,102674.56
2023-02-12T11:31:33.550Z,102677.00
2023-02-12T11:34:06.350Z,102674.53
2023-02-12T11:36:36.088Z,102667.75
2023-02-12T11:39:02.800Z,102670.22
2023-02-12T11:41:41.175Z,102658.66
2023-02-12T11:44:13.348Z,102663.13
2023-02-12T11:46:40.154Z,102661.13
2023-02-12T11:49:09.328Z,102652.09
2023-02-12T11:51:36.644Z,102659.50
2023-02-12T11:54:06.217Z,102651.34
2023-02-12T11:56:45.526Z,102668.19
2023-02-12T11:59:42.709Z,102658.53
2023-02-12T12:02:23.621Z,102659.84
2023-02-12T12:04:56.025Z,102644.66
2023-02-12T12:07:32.015Z,102656.16
2023-02-12T12:10:06.781Z,102647.25
2023-02-12T12:12:42.013Z,102649.38
2023-02-12T12:15:51.020Z,102645.75
2023-02-12T12:18:52.743Z,102634.72
2023-02-12T12:21:30.849Z,102636.88
2023-02-12T12:24:02.713Z,102632.97
2023-02-12T12:26:31.704Z,102632.66
2023-02-12T12:29:14.048Z,102625.97
2023-02-12T12:31:42.884Z,102633.47
2023-02-12T12:34:13.793Z,102634.34
2023-02-12T12:37:18.745Z,102638.34
2023-02-12T12:39:54.253Z,102630.63
2023-02-12T12:42:37.693Z,102624.13
2023-02-12T12:45:31.843Z,102622.72
2023-02-12T12:48:13.623Z,102613.53
2023-02-12T12:50:46.801Z,102619.88
2023-02-12T12:53:18.551Z,102622.88
2023-02-12T12:56:00.274Z,102604.38
2023-02-12T12:58:54.082Z,102600.22
2023-02-12T13:01:26.233Z,102593.19
2023-02-12T13:04:11.018Z,102585.34
2023-02-12T13:06:37.442Z,102581.28
2023-02-12T13:09:21.260Z,102579.09
2023-02-12T13:12:02.956Z,102585.53
2023-02-12T13:14:47.382Z,102583.81
2023-02-12T13:17:41.106Z,102576.03
2023-02-12T13:20:31.607Z,102570.84
2023-02-12T13:23:09.504Z,102573.72
2023-02-12T13:25:46.548Z,102569.03
2023-02-12T13:28:19.301Z,102566.47
2023-02-12T13:30:52.975Z,102560.19
2023-02-12T13:33:27.245Z,102560.06
2023-02-12T13:35:59.323Z,102559.41
2023-02-12T13:38:30.890Z,102552.75
2023-02-12T13:41:04.783Z,102547.56
2023-02-12T13:43:50.065Z,102556.47
2023-02-12T13:46:30.124Z,102551.81
2023-02-12T13:49:10.960Z,102561.22
2023-02-12T13:51:47.675Z,102551.84
2023-02-12T13:54:27.097Z,102551.81
2023-02-12T13:56:57.465Z,102551.50
2023-02-12T13:59:32.977Z,102544.75
2023-02-12T14:02:23.931Z,102537.47
2023-02-12T14:04:55.753Z,102533.38
2023-02-12T14:07:26.865Z,102536.13
2023-02-12T14:09:53.208Z,102534.84
2023-02-12T14:12:37.323Z,102534.03
2023-02-12T14:15:18.109Z,102525.88
2023-02-12T14:18:06.696Z,102523.53
2023-02-12T14:20:37.390Z,102524.66
2023-02-12T14:23:40.997Z,102517.47
2023-02-12T14:26:14.379Z,102524.50
2023-02-12T14:28:54.884Z,102518.94
2023-02-12T14:31:23.547Z,102519.53
2023-02-12T14:34:15.686Z,102518.59
2023-02-12T14:37:09.150Z,102517.13
2023-02-12T14:39:35.697Z,102520.56
2023-02-12T14:42:14.673Z,102515.31
2023-02-12T14:44:59.786Z,102516.38
2023-02-12T14:47:29.290Z,102510.59
2023-02-12T14:50:01.393Z,102506.63
2023-02-12T14:52:35.181Z,102509.94
2023-02-12T14:55:22.983Z,102501.78
2023-02-12T14:57:54.775Z,102492.50
2023-02-12T15:00:35.126Z,102496.28
2023-02-12T15:03:27.176Z,102488.84
2023-02-12T15:06:02.770Z,102492.94
2023-02-12T15:08:44.643Z,102488.19
2023-02-12T15:11:40.370Z,102492.09
2023-02-12T15:14:24.638Z,102492.81
2023-02-12T15:16:58.490Z,102483.94
2023-02-12T15:19:43.311Z,102484.75
2023-02-12T15:22:38.212Z,102486.16
2023-02-12T15:25:24.661Z,102490.63
2023-02-12T15:28:18.936Z,102489.28
2023-02-12T15:30:48.988Z,102487.19
2023-02-12T15:33:36.813Z,102491.50
2023-02-12T15:36:04.801Z,102482.75
2023-02-12T15:38:41.587Z,102487.81
2023-02-12T15:41:09.156Z,102482.50
2023-02-12T15:43:43.053Z,102478.78
2023-02-12T15:46:17.870Z,102486.59
2023-02-12T15:49:03.487Z,102478.69
2023-02-12T15:51:44.198Z,102492.59
2023-02-12T15:54:18.448Z,102496.56
2023-02-12T15:56:48.324Z,102487.09
2023-02-12T15:59:23.519Z,102482.03
2023-02-12T16:01:58.756Z,102483.00
2023-02-12T16:04:31.672Z,102482.50
2023-02-12T16:07:00.121Z,102484.50
2023-02-12T16:09:51.133Z,102476.22
2023-02-12T16:12:31.859Z,102480.66
2023-02-12T16:15:05.573Z,102475.94
2023-02-12T16:17:34.327Z,102475.06
2023-02-12T16:20:00.712Z,102478.41
2023-02-12T16:22:40.997Z,102471.56
2023-02-12T16:25:17.608Z,102483.31
2023-02-12T16:27:59.538Z,102482.47
2023-02-12T16:30:30.896Z,102490.38
2023-02-12T16:32:58.970Z,102495.06
2023-02-12T16:35:40.215Z,102491.88
2023-02-12T16:38:45.097Z,102487.16
2023-02-12T16:41:16.093Z,102487.25
2023-02-12T16:43:43.682Z,102494.44
2023-02-12T16:46:12.805Z,102498.59
2023-02-12T16:48:42.798Z,102499.44
2023-02-12T16:51:29.870Z,102504.47
2023-02-12T16:54:07.272Z,102500.44
2023-02-12T16:56:40.310Z,102511.03
2023-02-12T16:59:09.090Z,102512.81
2023-02-12T17:01:37.000Z,102508.31
2023-02-12T17:04:18.561Z,102510.00
2023-02-12T17:06:47.939Z,102511.63
2023-02-12T17:09:14.429Z,102506.28
2023-02-12T17:11:42.185Z,102514.72
2023-02-12T17:14:16.882Z,102516.56
2023-02-12T17:16:43.908Z,102514.72
2023-02-12T17:19:13.956Z,102516.72
2023-02-12T17:21:43.670Z,102513.88
2023-02-12T17:24:30.692Z,102514.78
2023-02-12T17:27:01.974Z,102517.19
2023-02-12T17:29:29.230Z,102519.81
2023-02-12T17:32:00.190Z,102521.09
2023-02-12T17:34:39.687Z,102522.19
2023-02-12T17:37:15.682Z,102525.31
2023-02-12T17:39:42.032Z,102526.81
2023-02-12T17:42:08.573Z,102531.50
2023-02-12T17:44:35.091Z,102537.22
2023-02-12T17:47:01.472Z,102532.16
2023-02-12T17:49:28.039Z,102537.31
2023-02-12T17:51:54.590Z,102533.56
2023-02-12T17:54:21.276Z,102532.38
2023-02-12T17:56:50.621Z,102539.91
2023-02-12T17:59:17.364Z,102543.75
2023-02-12T18:01:44.152Z,102544.63
2023-02-12T18:04:13.012Z,102543.91
2023-02-12T18:06:39.615Z,102547.38
2023-02-12T18:09:06.231Z,102543.34
2023-02-12T18:11:33.037Z,102548.59
2023-02-12T18:14:02.591Z,102547.94
2023-02-12T18:16:31.668Z,102555.03
2023-02-12T18:18:59.903Z,102553.69
2023-02-12T18:21:26.457Z,102556.41
2023-02-12T18:23:54.049Z,102554.31
2023-02-12T18:26:21.353Z,102561.16
2023-02-12T18:28:50.026Z,102551.81
2023-02-12T18:31:19.320Z,102549.91
2023-02-12T18:33:48.678Z,102553.19
2023-02-12T18:36:17.500Z,102549.81
2023-02-12T18:38:45.734Z,102551.25
2023-02-12T18:41:18.023Z,102559.28
2023-02-12T18:43:45.045Z,102553.88
2023-02-12T18:46:20.643Z,102554.16
2023-02-12T18:48:47.745Z,102552.81
2023-02-12T18:51:21.025Z,102558.41
2023-02-12T18:53:48.770Z,102560.34
2023-02-12T18:56:15.320Z,102555.47
2023-02-12T18:58:41.806Z,102561.88
2023-02-12T19:01:15.728Z,102560.59
2023-02-12T19:03:42.737Z,102562.03
2023-02-12T19:06:09.145Z,102558.28
2023-02-12T19:08:35.847Z,102557.28
2023-02-12T19:11:04.577Z,102558.66
2023-02-12T19:13:33.401Z,102554.31
2023-02-12T19:16:03.024Z,102550.78
2023-02-12T19:18:29.459Z,102552.16
2023-02-12T19:21:01.337Z,102549.75
2023-02-12T19:23:27.977Z,102561.72
2023-02-12T19:26:06.256Z,102550.13
2023-02-12T19:28:36.346Z,102545.66
2023-02-12T19:31:18.192Z,102552.50
2023-02-12T19:33:45.578Z,102559.13
2023-02-12T19:36:18.176Z,102556.09
2023-02-12T19:38:47.624Z,102554.88
2023-02-12T19:41:17.431Z,102555.50
2023-02-12T19:43:44.379Z,102555.50
2023-02-12T19:46:17.763Z,102559.31
2023-02-12T19:48:59.399Z,102555.69
2023-02-12T19:51:33.428Z,102562.31
2023-02-12T19:54:01.950Z,102572.31
2023-02-12T19:56:28.687Z,102566.66
2023-02-12T19:59:00.930Z,102586.56
2023-02-12T20:01:28.700Z,102576.81
2023-02-12T20:03:57.488Z,102571.34
2023-02-12T20:06:27.389Z,102564.41
2023-02-12T20:08:53.870Z,102570.34
2023-02-12T20:11:24.140Z,102574.13
2023-02-12T20:13:51.252Z,102569.56
2023-02-12T20:16:20.265Z,102566.94
2023-02-12T20:18:49.202Z,102576.66
2023-02-12T20:21:25.645Z,102568.44
2023-02-12T20:23:52.126Z,102572.25
2023-02-12T20:26:19.840Z,102565.66
2023-02-12T20:28:49.934Z,102583.13
2023-02-12T20:31:22.091Z,102574.84
2023-02-12T20:33:52.809Z,102584.88
2023-02-12T20:36:19.325Z,102578.84
2023-02-12T20:38:47.231Z,102574.66
2023-02-12T20:41:13.756Z,102580.59
2023-02-12T20:43:43.089Z,102576.97
2023-02-12T20:46:15.416Z,102585.75
2023-02-12T20:48:42.659Z,102588.69
2023-02-12T20:51:14.448Z,102586.56
2023-02-12T20:53:42.115Z,102583.38
2023-02-12T20:56:16.202Z,102576.50
2023-02-12T20:58:44.974Z,102585.00
2023-02-12T21:01:19.590Z,102581.53
2023-02-12T21:03:46.085Z,102584.44
2023-02-12T21:06:15.665Z,102576.16
2023-02-12T21:08:42.725Z,102579.50
2023-02-12T21:11:20.729Z,102576.97
2023-02-12T21:14:02.338Z,102571.59
2023-02-12T21:16:34.814Z,102578.38
2023-02-12T21:19:01.867Z,102569.09
2023-02-12T21:21:34.203Z,102572.84
2023-02-12T21:24:07.113Z,102568.69
2023-02-12T21:26:36.191Z,102566.06
2023-02-12T21:29:03.583Z,102566.75
2023-02-12T21:31:33.341Z,102570.16
2023-02-12T21:34:08.606Z,102570.84
2023-02-12T21:36:39.613Z,102557.94
2023-02-12T21:39:08.860Z,102563.28
2023-02-12T21:41:41.650Z,102557.56
2023-02-12T21:44:12.035Z,102561.91
2023-02-12T21:46:41.450Z,102570.09
2023-02-12T21:49:08.304Z,102556.78
2023-02-12T21:51:42.205Z,102573.19
2023-02-12T21:54:12.580Z,102571.44
2023-02-12T21:56:44.134Z,102580.88
2023-02-12T21:59:20.010Z,102584.09
2023-02-12T22:01:49.823Z,102584.41
2023-02-12T22:04:20.321Z,102584.72
2023-02-12T22:06:51.003Z,102590.47
2023-02-12T22:09:22.277Z,102591.00
2023-02-12T22:11:52.605Z,102594.13
2023-02-12T22:14:20.716Z,102595.63
2023-02-12T22:16:47.770Z,102600.28
2023-02-12T22:19:15.338Z,102600.50
2023-02-12T22:21:44.890Z,102591.72
2023-02-12T22:24:16.207Z,102587.88
2023-02-12T22:26:46.028Z,102598.03
2023-02-12T22:29:17.890Z,102593.09
2023-02-12T22:31:48.578Z,102592.41
2023-02-12T22:34:19.025Z,102601.06
2023-02-12T22:36:46.782Z,102593.94
2023-02-12T22:39:14.250Z,102590.41
2023-02-12T22:41:44.364Z,102593.66
2023-02-12T22:44:13.185Z,102590.44
2023-02-12T22:46:43.217Z,102593.22
2023-02-12T22:49:15.779Z,102590.25
2023-02-12T22:51:47.228Z,102592.16
2023-02-12T22:54:18.795Z,102594.78
2023-02-12T22:56:46.928Z,102589.88
2023-02-12T22:59:13.561Z,102603.38
2023-02-12T23:01:46.671Z,102592.59
2023-02-12T23:04:18.211Z,102593.59
2023-02-12T23:06:47.125Z,102595.28
2023-02-12T23:09:24.396Z,102596.09
2023-02-12T23:11:51.065Z,102595.81
2023-02-12T23:14:18.159Z,102596.19
2023-02-12T23:16:45.360Z,102602.50
2023-02-12T23:19:12.348Z,102603.66
2023-02-12T23:21:41.941Z,102603.41
2023-02-12T23:24:15.603Z,102607.09
2023-02-12T23:26:44.564Z,102599.66
2023-02-12T23:29:11.131Z,102599.44
2023-02-12T23:31:37.692Z,102598.41
2023-02-12T23:34:04.294Z,102604.53
2023-02-12T23:36:36.254Z,102596.44
2023-02-12T23:39:05.860Z,102601.03
2023-02-12T23:41:34.848Z,102600.50
2023-02-12T23:44:11.777Z,102599.09
2023-02-12T23:46:38.379Z,102587.72
2023-02-12T23:49:05.588Z,102596.91
2023-02-12T23:51:32.614Z,102592.56
2023-02-12T23:54:04.350Z,102591.34
2023-02-12T23:56:30.936Z,102597.63
2023-02-12T23:59:10.796Z,102589.28
